Time;durP1;ratioP1;P1;durP2;ratioP2;P2;SDS_P1;SDS_P2;PMS_P1;PMS_P2;Temp;Humidity;BMP_temperature;BMP_pressure;BME280_temperature;BME280_humidity;BME280_pressure;Samples;Min_cycle;Max_cycle;Signal;HPM_P1;HPM_P2
2022/01/24 00:02:20;;;;;;;17.30;10.37;;;4.60;99.90;;;;;;5036665;28;20215;-47
2022/01/24 00:04:48;;;;;;;12.93;8.97;;;4.50;99.90;;;;;;5036349;28;20702;-45
2022/01/24 00:07:17;;;;;;;15.23;10.00;;;4.50;99.90;;;;;;5036247;28;20213;-45
2022/01/24 00:09:43;;;;;;;18.77;10.03;;;4.60;99.90;;;;;;5036668;28;20168;-45
2022/01/24 00:12:19;;;;;;;16.53;9.60;;;4.50;99.90;;;;;;5036540;28;20709;-45
2022/01/24 00:17:36;;;;;;;16.53;10.33;;;4.50;99.90;;;;;;5036143;28;20216;-46
2022/01/24 00:28:13;;;;;;;17.90;10.13;;;4.40;99.90;;;;;;5036485;28;20176;-45
2022/01/24 00:30:39;;;;;;;16.07;10.33;;;4.40;99.90;;;;;;5034596;28;20184;-46
2022/01/24 00:33:05;;;;;;;15.17;10.20;;;4.40;99.90;;;;;;5033593;28;20188;-46
2022/01/24 00:35:31;;;;;;;14.53;9.20;;;4.30;99.90;;;;;;5035961;28;20667;-45
2022/01/24 00:38:00;;;;;;;13.90;9.53;;;4.30;99.90;;;;;;5036238;28;20180;-47
2022/01/24 00:40:27;;;;;;;17.13;9.83;;;4.20;99.90;;;;;;5034671;28;20606;-47
2022/01/24 00:42:58;;;;;;;15.03;9.80;;;4.20;99.90;;;;;;5035578;28;20527;-47
2022/01/24 00:45:42;;;;;;;13.03;9.60;;;4.10;99.90;;;;;;5035800;28;20165;-45
2022/01/24 00:48:26;;;;;;;14.93;9.57;;;4.10;99.90;;;;;;5034239;28;20661;-47
2022/01/24 00:53:59;;;;;;;15.33;10.13;;;4.00;99.90;;;;;;5036254;28;20234;-46
2022/01/24 00:56:24;;;;;;;14.93;9.53;;;3.90;99.90;;;;;;5035125;28;20247;-48
2022/01/24 00:58:50;;;;;;;17.07;10.23;;;3.90;99.90;;;;;;5034048;28;20184;-47
2022/01/24 01:01:15;;;;;;;14.40;9.50;;;3.80;99.90;;;;;;5035424;28;20212;-46
2022/01/24 01:03:41;;;;;;;15.50;9.77;;;3.80;99.90;;;;;;5034002;28;20231;-47
2022/01/24 01:06:11;;;;;;;15.90;10.33;;;3.70;99.90;;;;;;5033852;28;20228;-46
2022/01/24 01:19:38;;;;;;;15.20;10.07;;;3.40;99.90;;;;;;5035755;28;20219;-47
2022/01/24 01:22:04;;;;;;;16.67;9.97;;;3.30;99.90;;;;;;5033807;28;20205;-47
2022/01/24 01:24:34;;;;;;;16.70;10.07;;;3.30;99.90;;;;;;5033980;28;20203;-48
2022/01/24 01:27:06;;;;;;;16.57;10.70;;;3.20;99.90;;;;;;5033684;28;20200;-45
2022/01/24 01:29:45;;;;;;;15.20;10.63;;;3.20;99.90;;;;;;5033659;28;20176;-45
2022/01/24 01:40:30;;;;;;;16.57;9.30;;;2.90;99.90;;;;;;5035010;28;20185;-43
2022/01/24 01:54:25;;;;;;;15.33;10.07;;;2.70;99.90;;;;;;5034548;28;20584;-43
2022/01/24 01:56:40;;;;;;;17.60;10.07;;;2.70;99.90;;;;;;5034131;28;20223;-45
2022/01/24 01:59:05;;;;;;;15.77;9.90;;;2.60;99.90;;;;;;5034439;28;20214;-44
2022/01/24 02:01:31;;;;;;;19.80;10.27;;;2.60;99.90;;;;;;5034406;28;20240;-44
2022/01/24 02:03:57;;;;;;;16.73;10.67;;;2.50;99.90;;;;;;5034375;28;20219;-43
2022/01/24 02:06:24;;;;;;;19.23;11.33;;;2.40;99.90;;;;;;5034532;28;20738;-44
2022/01/24 02:08:58;;;;;;;23.43;15.60;;;2.40;99.90;;;;;;5033198;28;20177;-44
2022/01/24 02:11:23;;;;;;;34.77;23.47;;;2.30;99.90;;;;;;5033480;28;20630;-46
2022/01/24 02:13:49;;;;;;;25.77;16.33;;;2.20;99.90;;;;;;5034372;28;20177;-45
2022/01/24 02:16:26;;;;;;;21.03;12.50;;;2.10;99.90;;;;;;5034159;28;20205;-43
2022/01/24 02:24:51;;;;;;;13.63;9.87;;;1.90;99.90;;;;;;5028114;28;20191;-43
2022/01/24 02:27:18;;;;;;;15.03;9.67;;;1.90;99.90;;;;;;5032866;28;20290;-44
2022/01/24 02:30:05;;;;;;;15.93;9.97;;;1.80;99.90;;;;;;5034363;28;20180;-44
2022/01/24 02:32:31;;;;;;;15.13;9.23;;;1.80;99.90;;;;;;5034533;28;20200;-44
2022/01/24 02:34:56;;;;;;;15.97;9.07;;;1.70;99.90;;;;;;5034380;28;20221;-45
2022/01/24 02:37:23;;;;;;;16.07;8.93;;;1.70;99.90;;;;;;5032922;28;20204;-44
2022/01/24 02:39:57;;;;;;;14.33;9.27;;;1.60;99.90;;;;;;5034559;28;20699;-44
2022/01/24 02:53:10;;;;;;;14.73;9.03;;;1.40;99.90;;;;;;5034283;28;20287;-44
2022/01/24 02:55:38;;;;;;;11.50;7.83;;;1.40;99.90;;;;;;5033963;28;20236;-44
2022/01/24 02:58:04;;;;;;;11.13;7.43;;;1.30;99.90;;;;;;5034124;28;20657;-43
2022/01/24 03:00:29;;;;;;;13.33;8.83;;;1.30;99.90;;;;;;5033907;28;20187;-45
2022/01/24 03:02:55;;;;;;;12.47;7.70;;;1.20;99.90;;;;;;5034112;28;20172;-45
2022/01/24 03:05:20;;;;;;;11.70;7.40;;;1.20;99.90;;;;;;5034169;28;20172;-44
2022/01/24 03:07:46;;;;;;;11.57;7.37;;;1.10;99.90;;;;;;5034192;28;20709;-47
2022/01/24 03:10:23;;;;;;;11.07;7.03;;;1.10;99.90;;;;;;5034175;28;20171;-45
2022/01/24 03:12:58;;;;;;;10.27;6.27;;;1.00;99.90;;;;;;5033038;28;20167;-44
2022/01/24 03:15:24;;;;;;;9.27;6.13;;;1.00;99.90;;;;;;5033253;28;20171;-45
2022/01/24 03:17:49;;;;;;;9.43;6.37;;;1.00;99.90;;;;;;5034534;28;20207;-44
2022/01/24 03:20:15;;;;;;;8.73;5.90;;;1.00;99.90;;;;;;5034531;28;20722;-46
2022/01/24 03:22:40;;;;;;;10.60;6.77;;;1.10;99.90;;;;;;5033875;28;20287;-46
2022/01/24 03:25:06;;;;;;;9.07;6.30;;;1.00;99.90;;;;;;5034177;28;20183;-46
2022/01/24 03:27:32;;;;;;;8.13;5.90;;;1.10;99.90;;;;;;5034837;28;20566;-45
2022/01/24 03:29:58;;;;;;;10.83;6.00;;;1.10;99.90;;;;;;5033819;28;20596;-45
2022/01/24 03:32:23;;;;;;;8.30;6.00;;;1.00;99.90;;;;;;5033372;28;20192;-43
2022/01/24 03:34:49;;;;;;;9.43;6.37;;;1.00;99.90;;;;;;5033132;28;20183;-45
2022/01/24 03:37:14;;;;;;;10.77;5.80;;;1.00;99.90;;;;;;5033494;28;20609;-45
2022/01/24 03:39:40;;;;;;;9.30;5.77;;;1.00;99.90;;;;;;5033676;28;20184;-45
2022/01/24 03:42:06;;;;;;;10.27;6.17;;;1.00;99.90;;;;;;5033121;28;20712;-42
2022/01/24 03:44:31;;;;;;;9.10;6.10;;;1.00;99.90;;;;;;5033333;28;20182;-44
2022/01/24 03:47:13;;;;;;;9.97;6.13;;;1.00;99.90;;;;;;5033012;28;20191;-45
2022/01/24 03:49:45;;;;;;;10.23;6.33;;;1.00;99.90;;;;;;5032594;28;20199;-45
2022/01/24 03:52:20;;;;;;;14.37;8.77;;;1.00;99.90;;;;;;5031985;28;20442;-43
2022/01/24 03:54:49;;;;;;;12.43;7.70;;;0.90;99.90;;;;;;5033518;28;20175;-42
2022/01/24 03:57:18;;;;;;;9.13;6.23;;;0.90;99.90;;;;;;5033098;28;20438;-43
2022/01/24 03:59:44;;;;;;;9.43;6.30;;;0.80;99.90;;;;;;5033340;28;20267;-45
2022/01/24 04:02:12;;;;;;;10.40;6.93;;;0.80;99.90;;;;;;5032859;28;20573;-44
2022/01/24 04:04:37;;;;;;;8.40;5.33;;;0.70;99.90;;;;;;5033147;28;20175;-45
2022/01/24 04:07:03;;;;;;;9.83;6.40;;;0.70;99.90;;;;;;5033561;28;20803;-44
2022/01/24 04:09:29;;;;;;;8.03;5.63;;;0.70;99.90;;;;;;5035910;28;20183;-45
2022/01/24 04:11:57;;;;;;;7.93;5.97;;;0.60;99.90;;;;;;5036518;28;20443;-44
2022/01/24 04:14:35;;;;;;;8.17;5.80;;;0.60;99.90;;;;;;5036633;28;20228;-44
2022/01/24 04:22:16;;;;;;;9.00;5.97;;;0.50;99.90;;;;;;5036978;28;20456;-44
2022/01/24 04:24:43;;;;;;;6.23;5.00;;;0.40;99.90;;;;;;5036213;28;20780;-44
2022/01/24 04:27:10;;;;;;;8.93;5.70;;;0.40;99.90;;;;;;5035000;28;20442;-45
2022/01/24 04:29:37;;;;;;;11.20;5.70;;;0.40;99.90;;;;;;5036663;28;20421;-44
2022/01/24 04:32:03;;;;;;;7.30;5.53;;;0.30;99.90;;;;;;5036352;28;20963;-44
2022/01/24 04:34:29;;;;;;;8.57;5.20;;;0.30;99.90;;;;;;5036873;28;20418;-43
2022/01/24 04:36:55;;;;;;;11.27;5.53;;;0.20;99.90;;;;;;5036560;28;20439;-44
2022/01/24 04:39:20;;;;;;;9.57;6.07;;;0.20;99.90;;;;;;5036105;28;20653;-45
2022/01/24 04:41:49;;;;;;;8.13;5.90;;;0.20;99.90;;;;;;5036442;28;20682;-44
2022/01/24 04:52:22;;;;;;;7.97;5.60;;;0.10;99.90;;;;;;5036380;28;20853;-45
2022/01/24 04:54:48;;;;;;;8.10;5.60;;;0.10;99.90;;;;;;5036483;28;20389;-45
2022/01/24 04:57:20;;;;;;;8.43;5.30;;;0.10;99.90;;;;;;5035869;28;20582;-42
2022/01/24 04:59:47;;;;;;;9.07;5.13;;;0.10;99.90;;;;;;5036431;28;20249;-45
2022/01/24 05:02:16;;;;;;;7.47;5.00;;;0.20;99.90;;;;;;5036143;28;20514;-43
2022/01/24 05:04:42;;;;;;;7.67;5.17;;;0.10;99.90;;;;;;5036306;28;20820;-44
2022/01/24 05:07:09;;;;;;;8.23;5.40;;;0.10;99.90;;;;;;5036054;28;20447;-46
2022/01/24 05:09:45;;;;;;;8.23;5.43;;;0.10;99.90;;;;;;5035349;28;20177;-47
2022/01/24 05:12:24;;;;;;;8.40;5.60;;;0.10;99.90;;;;;;5035393;28;20764;-46
2022/01/24 05:21:30;;;;;;;9.80;5.53;;;0.00;99.90;;;;;;5035011;28;20403;-48
2022/01/24 05:25:48;;;;;;;7.37;5.43;;;0.00;99.90;;;;;;5035032;28;20512;-46
2022/01/24 05:28:14;;;;;;;9.50;5.40;;;-0.10;99.90;;;;;;5034958;28;20483;-46
2022/01/24 05:30:40;;;;;;;7.63;5.30;;;-0.10;99.90;;;;;;5034752;28;20177;-43
2022/01/24 05:33:05;;;;;;;7.43;5.23;;;-0.10;99.90;;;;;;5034736;28;20177;-45
2022/01/24 05:35:31;;;;;;;8.47;5.87;;;-0.20;99.90;;;;;;5033384;28;20207;-47
2022/01/24 05:37:57;;;;;;;12.13;5.80;;;-0.30;99.90;;;;;;5034556;28;20325;-46
2022/01/24 05:40:22;;;;;;;8.37;6.03;;;-0.20;99.90;;;;;;5035010;28;20177;-44
2022/01/24 05:42:48;;;;;;;8.37;5.63;;;-0.30;99.90;;;;;;5033186;28;20208;-43
2022/01/24 05:45:13;;;;;;;7.27;5.57;;;-0.30;99.90;;;;;;5034390;28;20171;-43
2022/01/24 05:47:39;;;;;;;7.67;5.57;;;-0.40;99.90;;;;;;5034475;28;20173;-43
2022/01/24 05:50:05;;;;;;;7.63;5.23;;;-0.40;99.90;;;;;;5034662;28;20182;-43
2022/01/24 05:52:31;;;;;;;7.33;5.10;;;-0.40;99.90;;;;;;5034498;28;20177;-43
2022/01/24 05:54:57;;;;;;;9.57;6.10;;;-0.50;99.90;;;;;;5033630;28;20427;-43
2022/01/24 05:57:23;;;;;;;8.07;5.67;;;-0.50;99.90;;;;;;5034595;28;20206;-43
2022/01/24 05:59:48;;;;;;;7.53;5.63;;;-0.50;99.90;;;;;;5032932;28;20423;-43
2022/01/24 06:02:14;;;;;;;10.23;6.03;;;-0.50;99.90;;;;;;5034447;28;20311;-43
2022/01/24 06:04:39;;;;;;;9.87;6.13;;;-0.50;99.90;;;;;;5034305;28;20176;-42
2022/01/24 06:07:05;;;;;;;7.67;5.47;;;-0.60;99.90;;;;;;5034221;28;20588;-45
2022/01/24 06:09:31;;;;;;;9.63;6.07;;;-0.60;99.90;;;;;;5034049;28;20264;-42
2022/01/24 06:11:57;;;;;;;9.30;5.70;;;-0.70;99.90;;;;;;5032578;28;20178;-42
2022/01/24 06:14:22;;;;;;;6.90;5.13;;;-0.70;99.90;;;;;;5033833;28;20676;-44
2022/01/24 06:16:48;;;;;;;10.40;6.17;;;-0.70;99.90;;;;;;5034297;28;20201;-41
2022/01/24 06:19:14;;;;;;;8.87;6.00;;;-0.80;99.90;;;;;;5033852;28;20708;-44
2022/01/24 06:21:40;;;;;;;10.00;5.50;;;-0.80;99.90;;;;;;5033953;28;20295;-44
2022/01/24 06:24:07;;;;;;;8.03;5.63;;;-0.80;99.90;;;;;;5032545;28;20489;-43
2022/01/24 06:26:33;;;;;;;7.60;5.53;;;-0.80;99.90;;;;;;5033613;28;20486;-43
2022/01/24 06:29:00;;;;;;;8.57;5.37;;;-0.80;99.90;;;;;;5033826;28;20454;-41
2022/01/24 06:31:26;;;;;;;10.77;5.37;;;-0.90;99.90;;;;;;5033053;28;20255;-41
2022/01/24 06:33:52;;;;;;;8.47;5.77;;;-0.90;99.90;;;;;;5032353;28;20518;-43
2022/01/24 06:36:18;;;;;;;11.27;6.43;;;-0.90;99.90;;;;;;5033521;28;20742;-44
2022/01/24 06:38:44;;;;;;;9.33;6.03;;;-0.90;99.90;;;;;;5033594;28;20731;-44
2022/01/24 06:41:10;;;;;;;10.17;6.40;;;-0.90;99.90;;;;;;5033697;28;20545;-44
2022/01/24 06:43:35;;;;;;;9.83;6.30;;;-1.00;99.90;;;;;;5033479;28;20181;-44
2022/01/24 06:46:01;;;;;;;10.07;6.50;;;-1.00;99.90;;;;;;5033756;28;20193;-43
2022/01/24 06:48:28;;;;;;;8.60;5.90;;;-1.00;99.90;;;;;;5033689;28;20161;-43
2022/01/24 06:50:54;;;;;;;9.73;6.13;;;-1.10;99.90;;;;;;5033562;28;20232;-43
2022/01/24 06:53:20;;;;;;;8.30;5.97;;;-1.10;99.90;;;;;;5033692;28;20508;-44
2022/01/24 06:55:46;;;;;;;9.87;6.77;;;-1.10;99.90;;;;;;5033280;28;20522;-44
2022/01/24 06:58:11;;;;;;;11.70;6.07;;;-1.10;99.90;;;;;;5033650;28;20181;-43
2022/01/24 07:00:37;;;;;;;9.83;6.53;;;-1.10;99.90;;;;;;5031796;28;20319;-42
2022/01/24 07:03:03;;;;;;;9.57;6.33;;;-1.10;99.90;;;;;;5033595;28;20196;-43
2022/01/24 07:05:29;;;;;;;9.47;6.40;;;-1.20;99.90;;;;;;5032008;28;20680;-44
2022/01/24 07:07:57;;;;;;;10.90;6.93;;;-1.20;99.90;;;;;;5033135;28;20173;-43
2022/01/24 07:10:26;;;;;;;9.80;6.33;;;-1.20;99.90;;;;;;5033468;28;20411;-43
2022/01/24 07:12:52;;;;;;;9.57;6.43;;;-1.20;99.90;;;;;;5033164;28;20419;-43
2022/01/24 07:15:21;;;;;;;11.60;6.83;;;-1.30;99.90;;;;;;5033290;28;20420;-44
2022/01/24 07:20:18;;;;;;;12.20;7.10;;;-1.30;99.90;;;;;;5033654;28;20528;-43
2022/01/24 07:22:43;;;;;;;14.40;7.67;;;-1.20;99.90;;;;;;5033111;28;20455;-43
2022/01/24 07:25:09;;;;;;;15.50;8.20;;;-1.20;99.90;;;;;;5033065;28;20825;-43
2022/01/24 07:27:35;;;;;;;12.13;7.57;;;-1.20;99.90;;;;;;5033605;28;20204;-43
2022/01/24 07:30:02;;;;;;;11.70;8.23;;;-1.20;99.90;;;;;;5033088;28;20489;-43
2022/01/24 07:32:30;;;;;;;16.00;8.03;;;-1.20;99.90;;;;;;5033259;28;20185;-43
2022/01/24 07:34:57;;;;;;;11.20;7.13;;;-1.20;99.90;;;;;;5033240;28;20416;-44
2022/01/24 07:37:24;;;;;;;12.27;8.00;;;-1.20;99.90;;;;;;5031814;28;20458;-41
2022/01/24 07:39:52;;;;;;;14.33;7.97;;;-1.20;99.90;;;;;;5031863;28;20423;-45
2022/01/24 07:42:39;;;;;;;14.33;9.37;;;-1.10;99.90;;;;;;5016234;28;20462;-43
2022/01/24 07:45:05;;;;;;;16.40;9.93;;;-1.10;99.90;;;;;;5036694;28;20400;-42
2022/01/24 07:47:31;;;;;;;17.63;9.50;;;-1.10;99.90;;;;;;5036556;28;20435;-43
2022/01/24 07:49:57;;;;;;;13.37;9.27;;;-1.10;99.90;;;;;;5035598;28;20412;-43
2022/01/24 07:52:23;;;;;;;14.23;9.00;;;-1.10;99.90;;;;;;5036785;28;20561;-43
2022/01/24 07:54:48;;;;;;;11.47;7.93;;;-1.10;99.90;;;;;;5036527;28;20648;-43
2022/01/24 07:57:14;;;;;;;13.30;8.87;;;-1.10;99.90;;;;;;5036563;28;20208;-41
2022/01/24 07:59:39;;;;;;;15.03;8.50;;;-1.10;99.90;;;;;;5035298;28;20184;-43
2022/01/24 08:02:05;;;;;;;13.70;8.27;;;-1.10;99.90;;;;;;5035116;28;20205;-43
2022/01/24 08:04:31;;;;;;;13.33;8.60;;;-1.10;99.90;;;;;;5036461;28;20183;-43
2022/01/24 08:06:56;;;;;;;15.13;8.67;;;-1.10;99.90;;;;;;5036719;28;20201;-43
2022/01/24 08:09:22;;;;;;;16.83;8.83;;;-1.10;99.90;;;;;;5037304;28;20181;-43
2022/01/24 08:11:48;;;;;;;16.27;9.77;;;-1.10;99.90;;;;;;5036332;28;20743;-44
2022/01/24 08:14:13;;;;;;;17.47;10.33;;;-1.10;99.90;;;;;;5035152;28;20226;-43
2022/01/24 08:16:40;;;;;;;15.57;9.23;;;-1.10;99.90;;;;;;5036267;28;20197;-43
2022/01/24 08:19:06;;;;;;;15.07;8.37;;;-1.10;99.90;;;;;;5036477;28;20528;-42
2022/01/24 08:21:32;;;;;;;14.63;9.00;;;-1.10;99.90;;;;;;5036155;28;20551;-45
2022/01/24 08:23:58;;;;;;;17.30;10.33;;;-1.10;99.90;;;;;;5036968;28;20173;-45
2022/01/24 08:26:24;;;;;;;17.83;9.87;;;-1.10;99.90;;;;;;5035998;28;20185;-44
2022/01/24 08:28:50;;;;;;;17.60;10.03;;;-1.10;99.90;;;;;;5036228;28;20784;-44
2022/01/24 08:31:16;;;;;;;16.97;10.60;;;-1.00;99.90;;;;;;5036507;28;20188;-43
2022/01/24 08:33:43;;;;;;;33.23;11.03;;;-0.90;99.90;;;;;;5036021;28;20206;-42
2022/01/24 08:36:09;;;;;;;22.50;11.00;;;-0.90;99.90;;;;;;5036284;28;20205;-42
2022/01/24 08:38:36;;;;;;;19.13;10.90;;;-0.80;99.90;;;;;;5035775;28;20450;-43
2022/01/24 08:41:12;;;;;;;17.63;10.67;;;-0.80;99.90;;;;;;5035764;28;20459;-42
2022/01/24 08:46:13;;;;;;;28.53;12.70;;;-0.70;99.90;;;;;;5035674;28;20469;-43
2022/01/24 08:48:42;;;;;;;24.97;12.13;;;-0.60;99.90;;;;;;5034599;28;20420;-45
2022/01/24 08:51:09;;;;;;;25.13;12.33;;;-0.50;99.90;;;;;;5035664;28;20451;-44
2022/01/24 08:53:35;;;;;;;22.57;12.80;;;-0.40;99.90;;;;;;5035014;28;20416;-42
2022/01/24 08:56:04;;;;;;;24.37;13.10;;;-0.30;99.90;;;;;;5035206;28;20470;-43
2022/01/24 08:58:31;;;;;;;24.90;12.97;;;-0.30;99.90;;;;;;5035974;28;20752;-44
2022/01/24 09:00:57;;;;;;;24.93;12.77;;;-0.20;99.90;;;;;;5033973;28;20463;-44
2022/01/24 09:03:25;;;;;;;26.30;14.07;;;-0.10;99.90;;;;;;5035388;28;20495;-43
2022/01/24 09:05:53;;;;;;;28.93;14.50;;;0.00;99.90;;;;;;5034542;28;20850;-42
2022/01/24 09:08:20;;;;;;;26.77;14.13;;;0.00;99.90;;;;;;5035367;28;20783;-43
2022/01/24 09:10:47;;;;;;;28.53;15.00;;;0.10;99.90;;;;;;5035618;28;20935;-42
2022/01/24 09:13:13;;;;;;;33.23;15.07;;;0.20;99.90;;;;;;5035147;28;20407;-44
2022/01/24 09:15:39;;;;;;;32.47;16.20;;;0.30;99.90;;;;;;5035570;28;20807;-42
2022/01/24 09:18:05;;;;;;;30.43;16.03;;;0.40;99.90;;;;;;5034637;28;20177;-43
2022/01/24 09:20:32;;;;;;;37.57;16.83;;;0.50;99.90;;;;;;5035756;28;20180;-44
2022/01/24 09:22:57;;;;;;;32.03;16.40;;;0.60;99.90;;;;;;5033751;28;20264;-43
2022/01/24 09:25:24;;;;;;;35.23;17.70;;;0.70;99.90;;;;;;5033673;28;20524;-44
2022/01/24 09:27:50;;;;;;;35.27;16.47;;;0.70;99.90;;;;;;5035125;28;20224;-44
2022/01/24 09:30:18;;;;;;;33.67;17.20;;;0.90;99.90;;;;;;5035189;28;20411;-43
2022/01/24 09:32:44;;;;;;;41.90;18.47;;;1.00;99.90;;;;;;5033514;28;20416;-44
2022/01/24 09:35:12;;;;;;;46.23;19.50;;;1.00;99.90;;;;;;5034679;28;20411;-44
2022/01/24 09:37:39;;;;;;;40.20;20.23;;;1.20;99.90;;;;;;5034860;28;20966;-44
2022/01/24 09:40:07;;;;;;;45.60;20.47;;;1.30;99.90;;;;;;5034730;28;20411;-43
2022/01/24 09:42:32;;;;;;;48.83;20.67;;;1.30;99.90;;;;;;5033194;28;20455;-44
2022/01/24 09:44:58;;;;;;;49.70;19.70;;;1.50;99.90;;;;;;5034931;28;20488;-44
2022/01/24 09:47:24;;;;;;;41.37;18.80;;;1.50;99.90;;;;;;5034633;28;20193;-43
2022/01/24 09:49:51;;;;;;;31.43;17.80;;;1.70;99.90;;;;;;5034902;28;20436;-43
2022/01/24 09:52:17;;;;;;;33.23;17.20;;;1.70;99.90;;;;;;5034600;28;20196;-43
2022/01/24 09:54:43;;;;;;;33.87;17.43;;;1.90;99.90;;;;;;5034361;28;20413;-43
2022/01/24 09:57:09;;;;;;;41.27;19.37;;;2.00;99.90;;;;;;5034033;28;20442;-43
2022/01/24 09:59:35;;;;;;;38.00;17.87;;;2.00;99.90;;;;;;5032959;28;20264;-43
2022/01/24 10:02:01;;;;;;;41.57;21.00;;;2.10;99.90;;;;;;5034314;28;20209;-44
2022/01/24 10:04:28;;;;;;;38.13;19.50;;;2.20;99.90;;;;;;5032806;28;20425;-44
2022/01/24 10:07:11;;;;;;;39.03;20.03;;;2.40;99.90;;;;;;5033246;28;20437;-43
2022/01/24 10:09:43;;;;;;;39.70;19.57;;;2.40;99.90;;;;;;5034313;28;20420;-45
2022/01/24 10:17:38;;;;;;;32.90;18.57;;;2.70;99.90;;;;;;5034972;28;20443;-44
2022/01/24 10:20:30;;;;;;;35.77;17.90;;;2.80;99.90;;;;;;5033503;28;20569;-42
2022/01/24 10:23:13;;;;;;;25.30;14.57;;;2.90;99.90;;;;;;5034336;28;20203;-43
2022/01/24 10:26:02;;;;;;;23.53;14.93;;;3.00;99.90;;;;;;5033113;28;20195;-42
2022/01/24 10:28:38;;;;;;;21.77;13.73;;;3.10;99.90;;;;;;5033149;28;20183;-44
2022/01/24 10:31:07;;;;;;;20.40;12.93;;;3.30;99.90;;;;;;5034305;28;20179;-44
2022/01/24 10:33:53;;;;;;;21.90;14.13;;;3.30;99.90;;;;;;5034749;28;20650;-44
2022/01/24 10:36:53;;;;;;;16.87;11.50;;;3.40;99.90;;;;;;5032651;28;20262;-42
2022/01/24 10:39:21;;;;;;;15.33;11.27;;;3.50;99.90;;;;;;5001055;28;20285;-43
2022/01/24 10:42:22;;;;;;;15.57;10.77;;;3.70;99.90;;;;;;5032974;28;20261;-43
2022/01/24 10:44:48;;;;;;;16.17;10.47;;;3.70;99.90;;;;;;5032938;28;20559;-45
2022/01/24 10:47:23;;;;;;;14.13;9.40;;;3.80;99.90;;;;;;5034335;28;20204;-43
2022/01/24 10:49:50;;;;;;;16.63;10.87;;;3.90;99.90;;;;;;5034802;28;20160;-44
2022/01/24 10:52:22;;;;;;;16.33;10.93;;;4.00;99.90;;;;;;5034170;28;20211;-43
2022/01/24 10:54:50;;;;;;;17.20;11.20;;;4.10;99.90;;;;;;5032970;28;20177;-44
2022/01/24 10:57:24;;;;;;;15.33;11.57;;;4.20;99.90;;;;;;5034109;28;20299;-44
2022/01/24 10:59:51;;;;;;;16.27;11.43;;;4.30;99.90;;;;;;5034401;28;20215;-44
2022/01/24 11:02:17;;;;;;;14.43;11.27;;;4.40;99.90;;;;;;5032850;28;20410;-43
2022/01/24 11:04:43;;;;;;;12.70;10.00;;;4.40;99.90;;;;;;5034428;28;20213;-46
2022/01/24 11:07:09;;;;;;;14.90;11.17;;;4.50;99.90;;;;;;5034034;28;20227;-44
2022/01/24 11:09:37;;;;;;;16.33;10.57;;;4.60;99.90;;;;;;5032063;28;20315;-46
2022/01/24 11:12:11;;;;;;;16.30;10.47;;;4.60;99.90;;;;;;5033375;28;20555;-46
2022/01/24 11:14:38;;;;;;;15.53;9.87;;;4.70;99.90;;;;;;5032536;28;20234;-45
2022/01/24 11:17:07;;;;;;;16.37;10.33;;;4.80;99.90;;;;;;5033964;28;20231;-46
2022/01/24 11:22:04;;;;;;;13.27;10.53;;;5.00;99.90;;;;;;5037455;28;20209;-45
2022/01/24 11:24:46;;;;;;;13.23;9.73;;;5.00;99.90;;;;;;5037831;28;20166;-46
2022/01/24 11:27:12;;;;;;;9.23;5.90;;;5.10;99.90;;;;;;5037133;28;20201;-46
2022/01/24 11:29:38;;;;;;;14.13;10.77;;;5.20;99.90;;;;;;5035894;28;20520;-46
2022/01/24 11:32:15;;;;;;;13.80;10.23;;;5.20;99.90;;;;;;5037643;28;20553;-47
2022/01/24 11:34:42;;;;;;;13.03;9.20;;;5.40;99.90;;;;;;5036385;28;20265;-46
2022/01/24 11:37:08;;;;;;;15.00;9.03;;;5.40;99.90;;;;;;5036080;28;20205;-46
2022/01/24 11:39:35;;;;;;;13.40;9.93;;;5.50;99.90;;;;;;5035715;28;20258;-46
2022/01/24 11:42:02;;;;;;;14.27;9.83;;;5.60;99.90;;;;;;5035977;28;20228;-46
2022/01/24 11:44:49;;;;;;;10.80;7.63;;;5.60;99.90;;;;;;5037065;28;20186;-44
2022/01/24 11:47:26;;;;;;;15.17;10.70;;;5.70;99.90;;;;;;5035449;28;20289;-45
2022/01/24 11:49:54;;;;;;;11.90;8.43;;;5.70;99.90;;;;;;5036891;28;20172;-44
2022/01/24 11:52:30;;;;;;;15.43;11.13;;;5.80;99.90;;;;;;5035454;28;20199;-45
2022/01/24 11:55:16;;;;;;;16.87;11.03;;;5.80;99.90;;;;;;5037766;28;20527;-47
2022/01/24 11:57:49;;;;;;;12.37;9.67;;;5.90;99.90;;;;;;5035860;28;20254;-45
2022/01/24 12:00:20;;;;;;;16.80;9.67;;;6.00;99.90;;;;;;5036519;28;20169;-45
2022/01/24 12:02:56;;;;;;;11.97;9.43;;;6.00;99.90;;;;;;5036500;28;20607;-45
2022/01/24 12:05:26;;;;;;;13.83;10.23;;;6.10;99.90;;;;;;5035141;28;20625;-46
2022/01/24 12:08:10;;;;;;;13.93;9.20;;;6.10;99.90;;;;;;5036517;28;20640;-44
2022/01/24 12:10:47;;;;;;;12.50;10.27;;;6.20;99.90;;;;;;5036519;28;20174;-46
2022/01/24 12:13:20;;;;;;;12.10;10.57;;;6.20;99.90;;;;;;5035135;28;20169;-46
2022/01/24 12:15:49;;;;;;;14.83;10.03;;;6.30;99.90;;;;;;5034975;28;20291;-45
2022/01/24 12:18:42;;;;;;;13.13;10.47;;;6.30;99.90;;;;;;5036974;28;20185;-45
2022/01/24 12:21:10;;;;;;;11.77;9.03;;;6.40;99.90;;;;;;5034919;28;20212;-45
2022/01/24 12:24:07;;;;;;;13.47;10.33;;;6.40;99.90;;;;;;5035192;28;20188;-45
2022/01/24 12:26:42;;;;;;;14.00;10.67;;;6.50;99.90;;;;;;5031733;28;20324;-45
2022/01/24 12:29:25;;;;;;;13.50;10.63;;;6.50;99.90;;;;;;5035155;28;20191;-44
2022/01/24 12:31:53;;;;;;;12.00;10.03;;;6.60;99.90;;;;;;5035980;28;20157;-45
2022/01/24 12:34:36;;;;;;;14.40;10.13;;;6.60;99.90;;;;;;5034729;28;20658;-45
2022/01/24 12:37:21;;;;;;;13.97;10.33;;;6.70;99.90;;;;;;5036030;28;20195;-46
2022/01/24 12:40:03;;;;;;;11.10;9.37;;;6.80;99.90;;;;;;5035957;28;20163;-47
2022/01/24 12:42:48;;;;;;;15.07;10.17;;;6.80;99.90;;;;;;5034677;28;20708;-44
2022/01/24 12:48:18;;;;;;;12.03;9.00;;;6.80;99.90;;;;;;5035656;28;20265;-41
2022/01/24 12:50:49;;;;;;;12.43;9.87;;;6.90;99.90;;;;;;5035765;28;20217;-44
2022/01/24 12:53:16;;;;;;;11.60;8.90;;;6.90;99.90;;;;;;5035774;28;20175;-45
2022/01/24 12:55:43;;;;;;;10.63;9.07;;;6.90;99.90;;;;;;5035813;28;20200;-45
2022/01/24 12:58:09;;;;;;;10.80;9.03;;;7.00;99.90;;;;;;5034201;28;20183;-44
2022/01/24 13:00:35;;;;;;;10.33;8.37;;;7.00;99.90;;;;;;5035622;28;20178;-43
2022/01/24 13:03:00;;;;;;;12.77;9.27;;;7.00;99.90;;;;;;5035859;28;20211;-45
2022/01/24 13:05:28;;;;;;;11.33;9.00;;;7.10;99.90;;;;;;5035655;28;20525;-45
2022/01/24 13:07:56;;;;;;;10.30;7.37;;;7.20;99.90;;;;;;5035529;28;20309;-45
2022/01/24 13:10:24;;;;;;;9.03;7.40;;;7.20;99.90;;;;;;5035611;28;20177;-43
2022/01/24 13:13:05;;;;;;;8.53;7.63;;;7.20;99.90;;;;;;5035493;28;20552;-43
2022/01/24 13:21:11;;;;;;;9.07;8.13;;;7.30;99.90;;;;;;5035580;28;20207;-44
2022/01/24 13:23:41;;;;;;;8.60;7.47;;;7.30;99.90;;;;;;5035581;28;20602;-45
2022/01/24 13:26:08;;;;;;;13.37;7.57;;;7.30;99.90;;;;;;5035335;28;20286;-43
2022/01/24 13:28:34;;;;;;;8.90;7.10;;;7.30;99.90;;;;;;5036292;28;20280;-44
2022/01/24 13:31:03;;;;;;;10.70;8.27;;;7.30;99.90;;;;;;5033772;28;20682;-45
2022/01/24 13:33:31;;;;;;;10.37;8.17;;;7.40;99.90;;;;;;5035095;28;20639;-45
2022/01/24 13:36:04;;;;;;;8.27;7.37;;;7.30;99.90;;;;;;5034956;28;20200;-45
2022/01/24 13:38:31;;;;;;;8.53;7.60;;;7.40;99.90;;;;;;5034622;28;20176;-46
2022/01/24 13:41:01;;;;;;;12.57;7.90;;;7.40;99.90;;;;;;5033365;28;20246;-45
2022/01/24 13:43:33;;;;;;;10.97;7.50;;;7.40;99.90;;;;;;5035536;28;20217;-44
2022/01/24 13:46:00;;;;;;;9.37;7.40;;;7.40;99.90;;;;;;5034968;28;20215;-47
2022/01/24 13:48:26;;;;;;;9.40;7.63;;;7.40;99.90;;;;;;5035283;28;20180;-46
2022/01/24 13:50:55;;;;;;;7.60;6.80;;;7.40;99.90;;;;;;5034572;28;20193;-45
2022/01/24 13:53:37;;;;;;;9.40;7.07;;;7.40;99.90;;;;;;5032820;28;20184;-44
2022/01/24 13:56:45;;;;;;;8.73;7.80;;;7.50;99.90;;;;;;5032625;28;20197;-46
2022/01/24 13:59:12;;;;;;;9.83;8.17;;;7.50;99.90;;;;;;4992606;28;20217;-44
2022/01/24 14:01:50;;;;;;;9.07;8.17;;;7.50;99.90;;;;;;5027770;28;20221;-45
2022/01/24 14:04:24;;;;;;;9.67;8.47;;;7.50;99.90;;;;;;5033220;28;20172;-45
2022/01/24 14:06:58;;;;;;;8.67;7.87;;;7.60;99.90;;;;;;5034364;28;20228;-43
2022/01/24 14:09:32;;;;;;;10.67;8.23;;;7.60;99.90;;;;;;5032700;28;20202;-46
2022/01/24 14:11:57;;;;;;;8.67;7.87;;;7.60;99.90;;;;;;5034453;28;20531;-45
2022/01/24 14:14:36;;;;;;;8.73;7.83;;;7.60;99.90;;;;;;5032834;28;20185;-46
2022/01/24 14:17:20;;;;;;;9.10;8.20;;;7.60;99.90;;;;;;5032930;28;20565;-45
2022/01/24 14:20:09;;;;;;;11.90;8.60;;;7.60;99.90;;;;;;5032921;28;20184;-45
2022/01/24 14:22:52;;;;;;;9.13;8.23;;;7.50;99.90;;;;;;5035161;28;20208;-46
2022/01/24 14:25:25;;;;;;;9.70;8.33;;;7.40;99.90;;;;;;5034142;28;20164;-45
2022/01/24 14:27:55;;;;;;;9.67;8.77;;;7.30;99.90;;;;;;5033655;28;20180;-46
2022/01/24 14:30:34;;;;;;;10.30;9.30;;;7.30;99.90;;;;;;5033916;28;20173;-43
2022/01/24 14:33:12;;;;;;;11.10;9.90;;;7.20;99.90;;;;;;5033177;28;20565;-46
2022/01/24 14:35:58;;;;;;;14.63;10.67;;;7.20;99.90;;;;;;5034101;28;20206;-45
2022/01/24 14:38:37;;;;;;;12.47;9.73;;;7.10;99.90;;;;;;5034343;28;20165;-47
2022/01/24 14:41:45;;;;;;;11.27;9.13;;;7.10;99.90;;;;;;5035498;28;20194;-45